sensor_id;sensor_type;location;lat;lon;timestamp;P1;durP1;ratioP1;P2;durP2;ratioP2
20721;SDS011;10522;52.198;9.890;2023-09-12T00:00:08;18.50;;;10.53;;
20721;SDS011;10522;52.198;9.890;2023-09-12T00:02:34;18.57;;;10.23;;
20721;SDS011;10522;52.198;9.890;2023-09-12T00:05:02;13.13;;;10.20;;
20721;SDS011;10522;52.198;9.890;2023-09-12T00:07:29;22.53;;;9.97;;
20721;SDS011;10522;52.198;9.890;2023-09-12T00:09:55;17.90;;;10.43;;
20721;SDS011;10522;52.198;9.890;2023-09-12T00:12:22;22.37;;;10.80;;
20721;SDS011;10522;52.198;9.890;2023-09-12T00:14:49;13.70;;;9.93;;
20721;SDS011;10522;52.198;9.890;2023-09-12T00:17:16;20.83;;;10.17;;
20721;SDS011;10522;52.198;9.890;2023-09-12T00:19:42;19.63;;;10.67;;
20721;SDS011;10522;52.198;9.890;2023-09-12T00:22:08;15.93;;;10.93;;
20721;SDS011;10522;52.198;9.890;2023-09-12T00:24:34;17.27;;;10.20;;
20721;SDS011;10522;52.198;9.890;2023-09-12T00:26:59;17.63;;;11.33;;
20721;SDS011;10522;52.198;9.890;2023-09-12T00:29:25;18.90;;;11.30;;
20721;SDS011;10522;52.198;9.890;2023-09-12T00:31:52;21.63;;;11.10;;
20721;SDS011;10522;52.198;9.890;2023-09-12T00:34:29;20.63;;;11.90;;
20721;SDS011;10522;52.198;9.890;2023-09-12T00:36:58;21.00;;;11.50;;
20721;SDS011;10522;52.198;9.890;2023-09-12T00:39:25;22.60;;;12.90;;
20721;SDS011;10522;52.198;9.890;2023-09-12T00:41:52;19.73;;;12.67;;
20721;SDS011;10522;52.198;9.890;2023-09-12T00:44:18;21.10;;;12.73;;
20721;SDS011;10522;52.198;9.890;2023-09-12T00:46:44;21.77;;;12.77;;
20721;SDS011;10522;52.198;9.890;2023-09-12T00:49:11;27.70;;;13.73;;
20721;SDS011;10522;52.198;9.890;2023-09-12T00:51:38;20.60;;;13.03;;
20721;SDS011;10522;52.198;9.890;2023-09-12T00:54:04;21.83;;;12.67;;
20721;SDS011;10522;52.198;9.890;2023-09-12T00:56:30;23.10;;;13.97;;
20721;SDS011;10522;52.198;9.890;2023-09-12T00:58:56;24.03;;;14.07;;
20721;SDS011;10522;52.198;9.890;2023-09-12T01:01:22;19.47;;;13.87;;
20721;SDS011;10522;52.198;9.890;2023-09-12T01:03:49;20.30;;;14.23;;
20721;SDS011;10522;52.198;9.890;2023-09-12T01:06:15;23.17;;;13.57;;
20721;SDS011;10522;52.198;9.890;2023-09-12T01:08:45;19.87;;;14.07;;
20721;SDS011;10522;52.198;9.890;2023-09-12T01:11:12;21.57;;;13.63;;
20721;SDS011;10522;52.198;9.890;2023-09-12T01:13:39;23.93;;;13.90;;
20721;SDS011;10522;52.198;9.890;2023-09-12T01:16:04;21.97;;;13.73;;
20721;SDS011;10522;52.198;9.890;2023-09-12T01:18:31;28.37;;;15.63;;
20721;SDS011;10522;52.198;9.890;2023-09-12T01:29:39;21.53;;;13.10;;
20721;SDS011;10522;52.198;9.890;2023-09-12T01:32:05;17.67;;;13.10;;
20721;SDS011;10522;52.198;9.890;2023-09-12T01:34:31;19.83;;;13.33;;
20721;SDS011;10522;52.198;9.890;2023-09-12T01:36:57;22.37;;;14.37;;
20721;SDS011;10522;52.198;9.890;2023-09-12T01:39:26;21.43;;;14.80;;
20721;SDS011;10522;52.198;9.890;2023-09-12T01:41:53;22.13;;;14.63;;
20721;SDS011;10522;52.198;9.890;2023-09-12T01:44:21;20.67;;;14.00;;
20721;SDS011;10522;52.198;9.890;2023-09-12T01:46:51;22.57;;;14.83;;
20721;SDS011;10522;52.198;9.890;2023-09-12T01:49:19;20.83;;;14.50;;
20721;SDS011;10522;52.198;9.890;2023-09-12T01:51:48;21.67;;;15.20;;
20721;SDS011;10522;52.198;9.890;2023-09-12T01:54:20;19.50;;;14.07;;
20721;SDS011;10522;52.198;9.890;2023-09-12T01:56:58;21.50;;;14.70;;
20721;SDS011;10522;52.198;9.890;2023-09-12T01:59:28;22.53;;;14.93;;
20721;SDS011;10522;52.198;9.890;2023-09-12T02:01:56;25.30;;;15.60;;
20721;SDS011;10522;52.198;9.890;2023-09-12T02:04:22;22.33;;;15.53;;
20721;SDS011;10522;52.198;9.890;2023-09-12T02:06:48;20.90;;;15.23;;
20721;SDS011;10522;52.198;9.890;2023-09-12T02:09:14;21.43;;;16.00;;
20721;SDS011;10522;52.198;9.890;2023-09-12T02:11:42;21.57;;;15.83;;
20721;SDS011;10522;52.198;9.890;2023-09-12T02:14:23;29.23;;;16.00;;
20721;SDS011;10522;52.198;9.890;2023-09-12T02:16:49;21.57;;;15.20;;
20721;SDS011;10522;52.198;9.890;2023-09-12T02:19:16;21.37;;;16.07;;
20721;SDS011;10522;52.198;9.890;2023-09-12T02:21:42;26.73;;;16.50;;
20721;SDS011;10522;52.198;9.890;2023-09-12T02:24:09;21.90;;;16.47;;
20721;SDS011;10522;52.198;9.890;2023-09-12T02:26:34;24.57;;;16.73;;
20721;SDS011;10522;52.198;9.890;2023-09-12T02:29:01;26.00;;;19.57;;
20721;SDS011;10522;52.198;9.890;2023-09-12T02:31:28;27.53;;;18.47;;
20721;SDS011;10522;52.198;9.890;2023-09-12T02:33:55;23.50;;;17.00;;
20721;SDS011;10522;52.198;9.890;2023-09-12T02:36:21;27.27;;;17.03;;
20721;SDS011;10522;52.198;9.890;2023-09-12T02:38:46;29.43;;;19.10;;
20721;SDS011;10522;52.198;9.890;2023-09-12T02:41:12;26.43;;;19.63;;
20721;SDS011;10522;52.198;9.890;2023-09-12T02:43:38;25.83;;;18.10;;
20721;SDS011;10522;52.198;9.890;2023-09-12T02:46:03;23.23;;;18.57;;
20721;SDS011;10522;52.198;9.890;2023-09-12T02:48:29;26.10;;;18.93;;
20721;SDS011;10522;52.198;9.890;2023-09-12T02:50:55;24.30;;;18.93;;
20721;SDS011;10522;52.198;9.890;2023-09-12T02:53:21;30.70;;;18.50;;
20721;SDS011;10522;52.198;9.890;2023-09-12T02:55:46;28.63;;;20.73;;
20721;SDS011;10522;52.198;9.890;2023-09-12T02:58:12;26.83;;;18.47;;
20721;SDS011;10522;52.198;9.890;2023-09-12T03:00:41;24.90;;;18.40;;
20721;SDS011;10522;52.198;9.890;2023-09-12T03:03:06;25.47;;;17.07;;
20721;SDS011;10522;52.198;9.890;2023-09-12T03:05:35;23.67;;;18.40;;
20721;SDS011;10522;52.198;9.890;2023-09-12T03:08:01;27.00;;;19.30;;
20721;SDS011;10522;52.198;9.890;2023-09-12T03:13:07;27.17;;;19.80;;
20721;SDS011;10522;52.198;9.890;2023-09-12T03:23:15;27.17;;;18.93;;
20721;SDS011;10522;52.198;9.890;2023-09-12T03:28:16;25.13;;;17.57;;
20721;SDS011;10522;52.198;9.890;2023-09-12T03:30:41;25.73;;;18.87;;
20721;SDS011;10522;52.198;9.890;2023-09-12T03:33:07;30.13;;;18.93;;
20721;SDS011;10522;52.198;9.890;2023-09-12T03:35:33;24.43;;;19.03;;
20721;SDS011;10522;52.198;9.890;2023-09-12T03:37:59;26.97;;;19.33;;
20721;SDS011;10522;52.198;9.890;2023-09-12T03:40:25;26.50;;;18.87;;
20721;SDS011;10522;52.198;9.890;2023-09-12T03:45:30;23.60;;;19.50;;
20721;SDS011;10522;52.198;9.890;2023-09-12T03:47:56;26.50;;;19.43;;
20721;SDS011;10522;52.198;9.890;2023-09-12T03:50:25;27.07;;;19.90;;
20721;SDS011;10522;52.198;9.890;2023-09-12T03:52:51;26.57;;;18.77;;
20721;SDS011;10522;52.198;9.890;2023-09-12T03:55:16;25.73;;;19.77;;
20721;SDS011;10522;52.198;9.890;2023-09-12T03:57:42;28.63;;;19.60;;
20721;SDS011;10522;52.198;9.890;2023-09-12T04:00:08;31.03;;;19.83;;
20721;SDS011;10522;52.198;9.890;2023-09-12T04:02:34;28.53;;;20.47;;
20721;SDS011;10522;52.198;9.890;2023-09-12T04:04:59;27.10;;;19.53;;
20721;SDS011;10522;52.198;9.890;2023-09-12T04:07:25;23.17;;;19.60;;
20721;SDS011;10522;52.198;9.890;2023-09-12T04:09:50;23.93;;;18.27;;
20721;SDS011;10522;52.198;9.890;2023-09-12T04:12:17;22.77;;;17.73;;
20721;SDS011;10522;52.198;9.890;2023-09-12T05:20:44;27.07;;;20.43;;
20721;SDS011;10522;52.198;9.890;2023-09-12T05:23:10;24.47;;;18.53;;
20721;SDS011;10522;52.198;9.890;2023-09-12T05:25:36;22.63;;;18.37;;
20721;SDS011;10522;52.198;9.890;2023-09-12T05:28:02;23.50;;;18.57;;
20721;SDS011;10522;52.198;9.890;2023-09-12T05:30:28;23.77;;;19.00;;
20721;SDS011;10522;52.198;9.890;2023-09-12T05:32:53;25.90;;;21.60;;
20721;SDS011;10522;52.198;9.890;2023-09-12T05:35:20;29.90;;;21.70;;
20721;SDS011;10522;52.198;9.890;2023-09-12T05:37:46;27.47;;;21.60;;
20721;SDS011;10522;52.198;9.890;2023-09-12T05:40:11;30.23;;;21.23;;
20721;SDS011;10522;52.198;9.890;2023-09-12T05:42:38;26.87;;;21.37;;
20721;SDS011;10522;52.198;9.890;2023-09-12T05:45:05;31.90;;;22.07;;
20721;SDS011;10522;52.198;9.890;2023-09-12T05:50:54;30.23;;;22.77;;
20721;SDS011;10522;52.198;9.890;2023-09-12T05:53:20;28.63;;;20.17;;
20721;SDS011;10522;52.198;9.890;2023-09-12T05:55:45;29.20;;;21.60;;
20721;SDS011;10522;52.198;9.890;2023-09-12T05:58:11;27.43;;;21.17;;
20721;SDS011;10522;52.198;9.890;2023-09-12T06:03:14;31.83;;;21.73;;
20721;SDS011;10522;52.198;9.890;2023-09-12T06:05:40;28.83;;;22.17;;
20721;SDS011;10522;52.198;9.890;2023-09-12T06:08:06;29.50;;;22.57;;
20721;SDS011;10522;52.198;9.890;2023-09-12T06:10:31;29.93;;;22.80;;
20721;SDS011;10522;52.198;9.890;2023-09-12T06:12:58;30.80;;;23.37;;
20721;SDS011;10522;52.198;9.890;2023-09-12T06:15:25;32.10;;;22.60;;
20721;SDS011;10522;52.198;9.890;2023-09-12T06:17:50;28.83;;;21.73;;
20721;SDS011;10522;52.198;9.890;2023-09-12T06:20:16;31.77;;;21.33;;
20721;SDS011;10522;52.198;9.890;2023-09-12T06:22:42;30.23;;;20.70;;
20721;SDS011;10522;52.198;9.890;2023-09-12T06:25:09;30.37;;;20.83;;
20721;SDS011;10522;52.198;9.890;2023-09-12T06:27:34;28.63;;;20.73;;
20721;SDS011;10522;52.198;9.890;2023-09-12T06:30:00;31.20;;;22.10;;
20721;SDS011;10522;52.198;9.890;2023-09-12T06:32:26;38.33;;;22.53;;
20721;SDS011;10522;52.198;9.890;2023-09-12T06:34:52;35.87;;;20.67;;
20721;SDS011;10522;52.198;9.890;2023-09-12T06:37:18;29.60;;;20.83;;
20721;SDS011;10522;52.198;9.890;2023-09-12T06:39:43;29.30;;;21.83;;
20721;SDS011;10522;52.198;9.890;2023-09-12T06:42:09;30.57;;;21.33;;
20721;SDS011;10522;52.198;9.890;2023-09-12T06:44:35;34.30;;;21.40;;
20721;SDS011;10522;52.198;9.890;2023-09-12T06:47:00;32.60;;;22.33;;
20721;SDS011;10522;52.198;9.890;2023-09-12T06:49:28;29.93;;;22.27;;
20721;SDS011;10522;52.198;9.890;2023-09-12T06:51:54;26.47;;;21.50;;
20721;SDS011;10522;52.198;9.890;2023-09-12T06:54:19;28.57;;;21.50;;
20721;SDS011;10522;52.198;9.890;2023-09-12T06:56:45;26.70;;;22.20;;
20721;SDS011;10522;52.198;9.890;2023-09-12T06:59:11;26.43;;;20.13;;
20721;SDS011;10522;52.198;9.890;2023-09-12T07:01:36;34.47;;;23.70;;
20721;SDS011;10522;52.198;9.890;2023-09-12T07:04:03;28.30;;;22.17;;
20721;SDS011;10522;52.198;9.890;2023-09-12T07:06:29;28.93;;;20.93;;
20721;SDS011;10522;52.198;9.890;2023-09-12T07:08:54;30.23;;;21.90;;
20721;SDS011;10522;52.198;9.890;2023-09-12T07:11:20;30.00;;;22.87;;
20721;SDS011;10522;52.198;9.890;2023-09-12T07:13:46;36.13;;;25.40;;
20721;SDS011;10522;52.198;9.890;2023-09-12T07:16:11;37.07;;;25.90;;
20721;SDS011;10522;52.198;9.890;2023-09-12T07:18:37;35.47;;;24.93;;
20721;SDS011;10522;52.198;9.890;2023-09-12T07:21:03;41.40;;;27.33;;
20721;SDS011;10522;52.198;9.890;2023-09-12T07:23:30;34.43;;;26.73;;
20721;SDS011;10522;52.198;9.890;2023-09-12T07:25:56;34.23;;;24.73;;
20721;SDS011;10522;52.198;9.890;2023-09-12T07:28:25;31.53;;;23.80;;
20721;SDS011;10522;52.198;9.890;2023-09-12T07:30:51;30.47;;;22.70;;
20721;SDS011;10522;52.198;9.890;2023-09-12T07:33:17;28.70;;;21.90;;
20721;SDS011;10522;52.198;9.890;2023-09-12T07:35:43;34.30;;;24.50;;
20721;SDS011;10522;52.198;9.890;2023-09-12T07:38:08;28.13;;;23.47;;
20721;SDS011;10522;52.198;9.890;2023-09-12T07:40:34;31.20;;;24.03;;
20721;SDS011;10522;52.198;9.890;2023-09-12T07:43:00;29.80;;;23.53;;
20721;SDS011;10522;52.198;9.890;2023-09-12T07:45:25;27.30;;;22.47;;
20721;SDS011;10522;52.198;9.890;2023-09-12T07:47:52;29.00;;;22.27;;
20721;SDS011;10522;52.198;9.890;2023-09-12T07:50:17;25.40;;;19.53;;
20721;SDS011;10522;52.198;9.890;2023-09-12T07:52:43;24.17;;;18.37;;
20721;SDS011;10522;52.198;9.890;2023-09-12T07:55:09;23.87;;;18.27;;
20721;SDS011;10522;52.198;9.890;2023-09-12T07:57:34;24.80;;;18.20;;
20721;SDS011;10522;52.198;9.890;2023-09-12T08:00:01;24.33;;;18.70;;
20721;SDS011;10522;52.198;9.890;2023-09-12T08:02:30;23.27;;;18.00;;
20721;SDS011;10522;52.198;9.890;2023-09-12T08:04:55;24.63;;;17.87;;
20721;SDS011;10522;52.198;9.890;2023-09-12T08:07:21;23.33;;;17.43;;
20721;SDS011;10522;52.198;9.890;2023-09-12T08:09:48;22.50;;;17.87;;
20721;SDS011;10522;52.198;9.890;2023-09-12T08:12:15;22.07;;;16.67;;
20721;SDS011;10522;52.198;9.890;2023-09-12T08:14:41;27.47;;;17.23;;
20721;SDS011;10522;52.198;9.890;2023-09-12T08:17:07;22.93;;;16.63;;
20721;SDS011;10522;52.198;9.890;2023-09-12T08:19:32;22.23;;;16.70;;
20721;SDS011;10522;52.198;9.890;2023-09-12T08:21:58;18.87;;;16.10;;
20721;SDS011;10522;52.198;9.890;2023-09-12T08:24:24;18.53;;;13.37;;
20721;SDS011;10522;52.198;9.890;2023-09-12T08:26:49;18.70;;;13.83;;
20721;SDS011;10522;52.198;9.890;2023-09-12T08:29:15;21.47;;;13.07;;
20721;SDS011;10522;52.198;9.890;2023-09-12T08:31:41;14.73;;;12.47;;
20721;SDS011;10522;52.198;9.890;2023-09-12T08:34:06;16.47;;;12.60;;
20721;SDS011;10522;52.198;9.890;2023-09-12T08:36:32;14.77;;;10.50;;
20721;SDS011;10522;52.198;9.890;2023-09-12T08:38:58;18.47;;;13.53;;
20721;SDS011;10522;52.198;9.890;2023-09-12T08:41:25;18.87;;;14.53;;
20721;SDS011;10522;52.198;9.890;2023-09-12T08:43:51;19.43;;;15.23;;
20721;SDS011;10522;52.198;9.890;2023-09-12T08:46:17;21.87;;;15.57;;
20721;SDS011;10522;52.198;9.890;2023-09-12T08:48:45;20.03;;;16.27;;
20721;SDS011;10522;52.198;9.890;2023-09-12T08:51:12;22.97;;;17.20;;
20721;SDS011;10522;52.198;9.890;2023-09-12T08:53:38;24.93;;;17.77;;
20721;SDS011;10522;52.198;9.890;2023-09-12T08:56:04;23.37;;;16.37;;
20721;SDS011;10522;52.198;9.890;2023-09-12T08:58:31;27.23;;;18.53;;
20721;SDS011;10522;52.198;9.890;2023-09-12T09:00:58;22.63;;;18.17;;
20721;SDS011;10522;52.198;9.890;2023-09-12T09:03:24;21.40;;;18.03;;
20721;SDS011;10522;52.198;9.890;2023-09-12T09:05:51;26.10;;;19.43;;
20721;SDS011;10522;52.198;9.890;2023-09-12T09:08:19;24.30;;;17.97;;
20721;SDS011;10522;52.198;9.890;2023-09-12T09:10:59;25.00;;;18.57;;
20721;SDS011;10522;52.198;9.890;2023-09-12T09:13:27;30.33;;;18.20;;
20721;SDS011;10522;52.198;9.890;2023-09-12T09:16:09;24.73;;;17.77;;
20721;SDS011;10522;52.198;9.890;2023-09-12T09:21:32;17.60;;;15.60;;
20721;SDS011;10522;52.198;9.890;2023-09-12T09:23:59;20.13;;;15.13;;
20721;SDS011;10522;52.198;9.890;2023-09-12T09:26:47;19.33;;;14.17;;
20721;SDS011;10522;52.198;9.890;2023-09-12T09:29:14;17.97;;;14.60;;
20721;SDS011;10522;52.198;9.890;2023-09-12T09:31:41;17.93;;;13.23;;
20721;SDS011;10522;52.198;9.890;2023-09-12T09:34:14;15.83;;;11.83;;
20721;SDS011;10522;52.198;9.890;2023-09-12T09:36:44;13.63;;;10.40;;
20721;SDS011;10522;52.198;9.890;2023-09-12T09:39:13;13.33;;;10.60;;
20721;SDS011;10522;52.198;9.890;2023-09-12T09:41:39;10.10;;;8.00;;
20721;SDS011;10522;52.198;9.890;2023-09-12T09:44:06;10.43;;;8.00;;
20721;SDS011;10522;52.198;9.890;2023-09-12T09:46:33;7.67;;;6.00;;
20721;SDS011;10522;52.198;9.890;2023-09-12T09:48:59;6.03;;;5.33;;
20721;SDS011;10522;52.198;9.890;2023-09-12T09:51:25;5.17;;;4.67;;
20721;SDS011;10522;52.198;9.890;2023-09-12T09:53:51;6.60;;;5.00;;
20721;SDS011;10522;52.198;9.890;2023-09-12T09:56:23;7.40;;;5.63;;
20721;SDS011;10522;52.198;9.890;2023-09-12T09:58:56;5.87;;;5.00;;
20721;SDS011;10522;52.198;9.890;2023-09-12T10:01:29;6.17;;;5.13;;
20721;SDS011;10522;52.198;9.890;2023-09-12T10:03:59;6.57;;;5.40;;
20721;SDS011;10522;52.198;9.890;2023-09-12T10:06:26;7.97;;;5.57;;
20721;SDS011;10522;52.198;9.890;2023-09-12T10:08:53;9.17;;;6.67;;
20721;SDS011;10522;52.198;9.890;2023-09-12T10:11:27;8.83;;;5.40;;
20721;SDS011;10522;52.198;9.890;2023-09-12T10:16:24;5.33;;;4.77;;
20721;SDS011;10522;52.198;9.890;2023-09-12T10:19:17;6.13;;;5.50;;
20721;SDS011;10522;52.198;9.890;2023-09-12T10:24:20;8.77;;;5.87;;
20721;SDS011;10522;52.198;9.890;2023-09-12T10:26:48;5.53;;;5.00;;
20721;SDS011;10522;52.198;9.890;2023-09-12T10:29:15;8.07;;;5.80;;
20721;SDS011;10522;52.198;9.890;2023-09-12T10:31:44;6.23;;;5.17;;
20721;SDS011;10522;52.198;9.890;2023-09-12T10:34:11;6.27;;;4.87;;
20721;SDS011;10522;52.198;9.890;2023-09-12T10:36:40;8.90;;;5.30;;
20721;SDS011;10522;52.198;9.890;2023-09-12T10:39:07;5.27;;;4.77;;
20721;SDS011;10522;52.198;9.890;2023-09-12T10:41:41;8.73;;;5.20;;
20721;SDS011;10522;52.198;9.890;2023-09-12T10:44:11;6.03;;;4.37;;
20721;SDS011;10522;52.198;9.890;2023-09-12T10:46:43;7.57;;;5.47;;
20721;SDS011;10522;52.198;9.890;2023-09-12T10:49:11;5.30;;;4.73;;
20721;SDS011;10522;52.198;9.890;2023-09-12T10:51:38;5.50;;;4.73;;
20721;SDS011;10522;52.198;9.890;2023-09-12T10:54:06;6.00;;;4.80;;
20721;SDS011;10522;52.198;9.890;2023-09-12T10:56:33;7.43;;;5.03;;
20721;SDS011;10522;52.198;9.890;2023-09-12T11:01:29;5.47;;;4.90;;
20721;SDS011;10522;52.198;9.890;2023-09-12T11:03:56;8.23;;;5.77;;
20721;SDS011;10522;52.198;9.890;2023-09-12T11:06:23;7.13;;;6.03;;
20721;SDS011;10522;52.198;9.890;2023-09-12T11:11:45;6.30;;;4.90;;
20721;SDS011;10522;52.198;9.890;2023-09-12T11:14:27;5.80;;;4.97;;
20721;SDS011;10522;52.198;9.890;2023-09-12T11:19:46;8.17;;;5.43;;
20721;SDS011;10522;52.198;9.890;2023-09-12T11:22:35;7.33;;;5.97;;
20721;SDS011;10522;52.198;9.890;2023-09-12T11:25:04;7.03;;;5.13;;
20721;SDS011;10522;52.198;9.890;2023-09-12T11:27:44;8.30;;;5.40;;
20721;SDS011;10522;52.198;9.890;2023-09-12T11:30:16;6.07;;;5.20;;
20721;SDS011;10522;52.198;9.890;2023-09-12T11:32:43;5.80;;;5.23;;
20721;SDS011;10522;52.198;9.890;2023-09-12T11:35:10;6.80;;;5.70;;
20721;SDS011;10522;52.198;9.890;2023-09-12T11:37:38;7.33;;;6.43;;
20721;SDS011;10522;52.198;9.890;2023-09-12T11:42:42;8.07;;;6.37;;
20721;SDS011;10522;52.198;9.890;2023-09-12T11:45:09;8.13;;;7.03;;
20721;SDS011;10522;52.198;9.890;2023-09-12T11:47:42;8.23;;;6.63;;
20721;SDS011;10522;52.198;9.890;2023-09-12T11:50:09;8.30;;;6.53;;
20721;SDS011;10522;52.198;9.890;2023-09-12T11:52:57;7.73;;;6.53;;
20721;SDS011;10522;52.198;9.890;2023-09-12T11:55:24;7.70;;;6.53;;
20721;SDS011;10522;52.198;9.890;2023-09-12T11:57:56;8.60;;;6.73;;
20721;SDS011;10522;52.198;9.890;2023-09-12T12:00:26;7.60;;;6.17;;
20721;SDS011;10522;52.198;9.890;2023-09-12T12:02:55;9.50;;;7.00;;
20721;SDS011;10522;52.198;9.890;2023-09-12T12:05:23;10.60;;;6.90;;
20721;SDS011;10522;52.198;9.890;2023-09-12T12:07:50;10.77;;;7.20;;
20721;SDS011;10522;52.198;9.890;2023-09-12T12:26:32;7.30;;;6.43;;
20721;SDS011;10522;52.198;9.890;2023-09-12T12:29:04;7.93;;;6.33;;
20721;SDS011;10522;52.198;9.890;2023-09-12T12:31:30;7.77;;;6.10;;
20721;SDS011;10522;52.198;9.890;2023-09-12T12:34:01;11.43;;;7.73;;
20721;SDS011;10522;52.198;9.890;2023-09-12T12:39:47;10.07;;;7.00;;
20721;SDS011;10522;52.198;9.890;2023-09-12T12:42:22;7.20;;;6.13;;
20721;SDS011;10522;52.198;9.890;2023-09-12T12:44:56;8.37;;;7.37;;
20721;SDS011;10522;52.198;9.890;2023-09-12T12:47:21;17.27;;;7.50;;
20721;SDS011;10522;52.198;9.890;2023-09-12T12:49:52;11.30;;;7.73;;
20721;SDS011;10522;52.198;9.890;2023-09-12T12:52:24;13.20;;;7.80;;
20721;SDS011;10522;52.198;9.890;2023-09-12T12:54:50;9.07;;;7.07;;
20721;SDS011;10522;52.198;9.890;2023-09-12T12:57:21;8.73;;;6.50;;
20721;SDS011;10522;52.198;9.890;2023-09-12T12:59:48;10.20;;;7.63;;
20721;SDS011;10522;52.198;9.890;2023-09-12T13:02:14;12.10;;;7.43;;
20721;SDS011;10522;52.198;9.890;2023-09-12T13:40:31;8.70;;;7.60;;
20721;SDS011;10522;52.198;9.890;2023-09-12T13:43:03;9.50;;;7.20;;
20721;SDS011;10522;52.198;9.890;2023-09-12T13:45:33;10.27;;;8.27;;
20721;SDS011;10522;52.198;9.890;2023-09-12T13:47:59;10.53;;;7.80;;
20721;SDS011;10522;52.198;9.890;2023-09-12T13:50:26;7.80;;;5.90;;
20721;SDS011;10522;52.198;9.890;2023-09-12T13:52:55;8.20;;;5.73;;
20721;SDS011;10522;52.198;9.890;2023-09-12T13:55:22;7.50;;;5.50;;
20721;SDS011;10522;52.198;9.890;2023-09-12T13:57:48;6.37;;;4.70;;
20721;SDS011;10522;52.198;9.890;2023-09-12T14:00:13;8.87;;;5.87;;
20721;SDS011;10522;52.198;9.890;2023-09-12T14:08:47;8.67;;;5.63;;
20721;SDS011;10522;52.198;9.890;2023-09-12T14:31:50;3.90;;;3.43;;
20721;SDS011;10522;52.198;9.890;2023-09-12T14:34:19;5.13;;;3.63;;
20721;SDS011;10522;52.198;9.890;2023-09-12T14:36:44;7.60;;;3.73;;
20721;SDS011;10522;52.198;9.890;2023-09-12T14:39:13;4.50;;;3.67;;
20721;SDS011;10522;52.198;9.890;2023-09-12T14:41:39;4.33;;;3.47;;
20721;SDS011;10522;52.198;9.890;2023-09-12T14:44:05;3.70;;;3.33;;
20721;SDS011;10522;52.198;9.890;2023-09-12T14:46:31;3.93;;;3.20;;
20721;SDS011;10522;52.198;9.890;2023-09-12T14:48:57;4.30;;;3.87;;
20721;SDS011;10522;52.198;9.890;2023-09-12T14:59:10;5.10;;;4.10;;
20721;SDS011;10522;52.198;9.890;2023-09-12T15:01:36;4.73;;;3.87;;
20721;SDS011;10522;52.198;9.890;2023-09-12T15:04:02;3.67;;;3.30;;
20721;SDS011;10522;52.198;9.890;2023-09-12T15:06:28;5.10;;;3.90;;
20721;SDS011;10522;52.198;9.890;2023-09-12T15:08:59;5.33;;;3.57;;
20721;SDS011;10522;52.198;9.890;2023-09-12T15:11:30;6.20;;;3.70;;
20721;SDS011;10522;52.198;9.890;2023-09-12T15:14:04;4.00;;;3.70;;
20721;SDS011;10522;52.198;9.890;2023-09-12T15:17:11;3.77;;;3.20;;
20721;SDS011;10522;52.198;9.890;2023-09-12T15:19:43;4.23;;;3.57;;
20721;SDS011;10522;52.198;9.890;2023-09-12T15:22:22;4.57;;;4.07;;
20721;SDS011;10522;52.198;9.890;2023-09-12T15:24:48;4.67;;;3.37;;
20721;SDS011;10522;52.198;9.890;2023-09-12T15:27:14;4.60;;;3.90;;
20721;SDS011;10522;52.198;9.890;2023-09-12T15:29:40;6.23;;;3.67;;
20721;SDS011;10522;52.198;9.890;2023-09-12T15:32:05;4.00;;;3.60;;
20721;SDS011;10522;52.198;9.890;2023-09-12T15:34:32;8.03;;;3.90;;
20721;SDS011;10522;52.198;9.890;2023-09-12T15:37:08;4.63;;;4.20;;
20721;SDS011;10522;52.198;9.890;2023-09-12T15:39:35;5.40;;;3.63;;
20721;SDS011;10522;52.198;9.890;2023-09-12T15:42:04;6.47;;;5.00;;
20721;SDS011;10522;52.198;9.890;2023-09-12T15:44:32;5.90;;;4.00;;
20721;SDS011;10522;52.198;9.890;2023-09-12T15:46:58;6.23;;;3.70;;
20721;SDS011;10522;52.198;9.890;2023-09-12T15:49:27;4.70;;;3.83;;
20721;SDS011;10522;52.198;9.890;2023-09-12T15:51:56;4.03;;;3.70;;
20721;SDS011;10522;52.198;9.890;2023-09-12T15:54:22;5.33;;;3.90;;
20721;SDS011;10522;52.198;9.890;2023-09-12T15:56:49;4.50;;;3.97;;
20721;SDS011;10522;52.198;9.890;2023-09-12T16:02:04;4.77;;;3.77;;
20721;SDS011;10522;52.198;9.890;2023-09-12T16:04:36;5.93;;;4.27;;
20721;SDS011;10522;52.198;9.890;2023-09-12T16:07:38;3.80;;;3.30;;
20721;SDS011;10522;52.198;9.890;2023-09-12T16:10:03;4.07;;;3.53;;
20721;SDS011;10522;52.198;9.890;2023-09-12T16:12:32;6.47;;;3.53;;
20721;SDS011;10522;52.198;9.890;2023-09-12T16:14:58;3.63;;;3.20;;
20721;SDS011;10522;52.198;9.890;2023-09-12T16:17:37;4.60;;;3.70;;
20721;SDS011;10522;52.198;9.890;2023-09-12T16:20:10;5.03;;;3.90;;
20721;SDS011;10522;52.198;9.890;2023-09-12T16:22:42;3.80;;;3.47;;
20721;SDS011;10522;52.198;9.890;2023-09-12T16:28:53;5.07;;;4.53;;
20721;SDS011;10522;52.198;9.890;2023-09-12T16:31:41;5.97;;;3.90;;
20721;SDS011;10522;52.198;9.890;2023-09-12T16:37:07;7.40;;;4.20;;
20721;SDS011;10522;52.198;9.890;2023-09-12T16:39:46;8.73;;;4.03;;
20721;SDS011;10522;52.198;9.890;2023-09-12T16:42:11;4.27;;;3.87;;
20721;SDS011;10522;52.198;9.890;2023-09-12T16:47:36;5.83;;;3.53;;
20721;SDS011;10522;52.198;9.890;2023-09-12T16:55:12;5.67;;;4.20;;
20721;SDS011;10522;52.198;9.890;2023-09-12T16:58:10;5.07;;;4.23;;
20721;SDS011;10522;52.198;9.890;2023-09-12T17:06:53;7.27;;;5.27;;
20721;SDS011;10522;52.198;9.890;2023-09-12T17:09:19;7.40;;;4.73;;
20721;SDS011;10522;52.198;9.890;2023-09-12T17:11:46;7.43;;;4.90;;
20721;SDS011;10522;52.198;9.890;2023-09-12T17:14:20;5.13;;;4.53;;
20721;SDS011;10522;52.198;9.890;2023-09-12T17:16:48;12.00;;;4.70;;
20721;SDS011;10522;52.198;9.890;2023-09-12T17:20:29;7.93;;;4.60;;
20721;SDS011;10522;52.198;9.890;2023-09-12T17:23:07;9.97;;;4.77;;
20721;SDS011;10522;52.198;9.890;2023-09-12T17:26:05;5.53;;;5.00;;
20721;SDS011;10522;52.198;9.890;2023-09-12T17:35:32;6.03;;;5.00;;
20721;SDS011;10522;52.198;9.890;2023-09-12T17:38:27;5.93;;;4.77;;
20721;SDS011;10522;52.198;9.890;2023-09-12T17:41:41;6.63;;;4.60;;
20721;SDS011;10522;52.198;9.890;2023-09-12T17:52:10;8.13;;;5.63;;
20721;SDS011;10522;52.198;9.890;2023-09-12T17:54:37;6.87;;;5.40;;
20721;SDS011;10522;52.198;9.890;2023-09-12T17:57:09;7.90;;;5.40;;
20721;SDS011;10522;52.198;9.890;2023-09-12T17:59:42;6.70;;;5.50;;
20721;SDS011;10522;52.198;9.890;2023-09-12T18:02:09;7.37;;;5.87;;
20721;SDS011;10522;52.198;9.890;2023-09-12T18:04:35;7.67;;;5.70;;
20721;SDS011;10522;52.198;9.890;2023-09-12T18:07:03;8.20;;;6.07;;
20721;SDS011;10522;52.198;9.890;2023-09-12T18:09:29;7.33;;;6.33;;
20721;SDS011;10522;52.198;9.890;2023-09-12T18:11:55;8.27;;;7.10;;
20721;SDS011;10522;52.198;9.890;2023-09-12T18:14:21;8.17;;;6.80;;
20721;SDS011;10522;52.198;9.890;2023-09-12T18:16:48;15.30;;;7.80;;
20721;SDS011;10522;52.198;9.890;2023-09-12T18:19:14;9.20;;;7.77;;
20721;SDS011;10522;52.198;9.890;2023-09-12T18:21:39;12.20;;;9.40;;
20721;SDS011;10522;52.198;9.890;2023-09-12T18:24:05;15.87;;;10.83;;
20721;SDS011;10522;52.198;9.890;2023-09-12T18:26:32;14.27;;;10.47;;
20721;SDS011;10522;52.198;9.890;2023-09-12T18:28:58;12.93;;;9.17;;
20721;SDS011;10522;52.198;9.890;2023-09-12T18:31:24;13.03;;;9.80;;
20721;SDS011;10522;52.198;9.890;2023-09-12T18:33:50;14.97;;;9.03;;
20721;SDS011;10522;52.198;9.890;2023-09-12T18:36:15;11.30;;;9.27;;
20721;SDS011;10522;52.198;9.890;2023-09-12T18:38:42;10.97;;;9.73;;
20721;SDS011;10522;52.198;9.890;2023-09-12T18:41:08;12.30;;;10.37;;
20721;SDS011;10522;52.198;9.890;2023-09-12T18:43:34;12.83;;;8.70;;